createdAt,value
2019-01-16T00:02:36.334Z,76.60
2019-01-16T00:08:27.948Z,76.60
2019-01-16T00:14:26.497Z,75.80
2019-01-16T00:20:19.583Z,76.10
2019-01-16T00:25:45.728Z,75.30
2019-01-16T00:28:19.523Z,75.20
2019-01-16T00:30:53.927Z,74.80
2019-01-16T00:33:29.983Z,74.80
2019-01-16T00:36:06.355Z,74.40
2019-01-16T00:41:48.275Z,75.00
2019-01-16T00:47:35.439Z,74.80
2019-01-16T00:50:44.920Z,75.00
2019-01-16T00:53:21.853Z,74.10
2019-01-16T00:59:23.014Z,74.60
2019-01-16T01:04:56.848Z,73.80
2019-01-16T01:10:55.769Z,73.70
2019-01-16T01:16:24.823Z,73.20
2019-01-16T01:21:55.027Z,73.90
2019-01-16T01:27:21.206Z,74.20
2019-01-16T01:33:16.787Z,74.20
2019-01-16T01:36:32.470Z,74.50
2019-01-16T01:39:20.859Z,74.80
2019-01-16T01:45:18.107Z,76.00
2019-01-16T01:51:06.371Z,75.10
2019-01-16T01:54:29.730Z,73.90
2019-01-16T01:56:34.834Z,74.80
2019-01-16T02:02:13.813Z,77.10
2019-01-16T02:04:52.938Z,77.00
2019-01-16T02:07:48.189Z,75.70
2019-01-16T02:10:27.704Z,74.60
2019-01-16T02:13:03.321Z,75.00
2019-01-16T02:15:38.967Z,74.80
2019-01-16T02:18:19.589Z,74.60
2019-01-16T02:21:09.128Z,74.20
2019-01-16T02:23:53.413Z,75.00
2019-01-16T02:26:47.287Z,75.70
2019-01-16T02:29:36.640Z,74.60
2019-01-16T02:32:25.640Z,74.90
2019-01-16T02:35:16.864Z,74.80
2019-01-16T02:37:53.591Z,74.60
2019-01-16T02:40:41.157Z,74.70
2019-01-16T02:43:17.668Z,73.80
2019-01-16T02:46:03.926Z,73.50
2019-01-16T02:48:55.830Z,73.50
2019-01-16T02:51:36.309Z,74.50
2019-01-16T02:54:21.845Z,74.10
2019-01-16T02:57:16.987Z,75.00
2019-01-16T02:59:57.218Z,73.90
2019-01-16T03:02:34.650Z,73.80
2019-01-16T03:05:08.399Z,74.60
2019-01-16T03:07:44.065Z,75.00
2019-01-16T03:10:22.364Z,73.80
2019-01-16T03:13:03.632Z,73.40
2019-01-16T03:15:40.210Z,73.30
2019-01-16T03:18:18.033Z,73.50
2019-01-16T03:21:03.470Z,73.20
2019-01-16T03:23:57.774Z,72.60
2019-01-16T03:26:38.405Z,73.10
2019-01-16T03:29:13.956Z,72.70
2019-01-16T03:32:17.425Z,72.20
2019-01-16T03:34:57.887Z,72.10
2019-01-16T03:37:37.299Z,73.10
2019-01-16T03:40:29.108Z,73.30
2019-01-16T03:43:17.000Z,72.90
2019-01-16T03:45:54.953Z,72.60
2019-01-16T03:48:36.405Z,72.00
2019-01-16T03:51:32.864Z,72.10
2019-01-16T03:54:16.235Z,73.50
2019-01-16T03:57:04.279Z,72.90
2019-01-16T03:59:47.973Z,73.30
2019-01-16T04:02:45.119Z,72.00
2019-01-16T04:05:20.360Z,72.60
2019-01-16T04:07:59.658Z,72.50
2019-01-16T04:10:50.749Z,72.60
2019-01-16T04:13:28.757Z,74.00
2019-01-16T04:16:07.388Z,73.40
2019-01-16T04:18:47.683Z,72.70
2019-01-16T04:21:29.596Z,72.00
2019-01-16T04:24:30.049Z,72.20
2019-01-16T04:27:13.310Z,72.20
2019-01-16T04:29:49.361Z,72.80
2019-01-16T04:32:40.975Z,72.60
2019-01-16T04:35:15.108Z,70.80
2019-01-16T04:37:59.179Z,72.20
2019-01-16T04:40:46.044Z,72.40
2019-01-16T04:43:18.608Z,72.50
2019-01-16T04:45:57.694Z,73.70
2019-01-16T04:48:40.213Z,72.40
2019-01-16T04:51:31.424Z,71.40
2019-01-16T04:54:23.503Z,70.90
2019-01-16T04:57:13.707Z,70.40
2019-01-16T04:59:58.849Z,71.00
2019-01-16T05:02:52.843Z,69.80
2019-01-16T05:05:32.950Z,71.80
2019-01-16T05:08:16.653Z,71.50
2019-01-16T05:10:54.343Z,70.90
2019-01-16T05:13:33.344Z,70.20
2019-01-16T05:16:20.807Z,72.30
2019-01-16T05:19:02.914Z,71.20
2019-01-16T05:21:43.435Z,70.70
2019-01-16T05:24:20.961Z,71.00
2019-01-16T05:27:15.896Z,70.30
2019-01-16T05:30:08.776Z,68.80
2019-01-16T05:32:50.974Z,68.30
2019-01-16T05:35:42.349Z,69.40
2019-01-16T05:38:24.239Z,69.10
2019-01-16T05:41:12.341Z,68.50
2019-01-16T05:43:52.845Z,68.50
2019-01-16T05:46:33.071Z,68.20
2019-01-16T05:49:21.655Z,67.20
2019-01-16T05:52:14.489Z,67.30
2019-01-16T05:55:10.830Z,66.80
2019-01-16T05:57:59.050Z,67.30
2019-01-16T06:00:36.414Z,67.00
2019-01-16T06:03:15.271Z,67.50
2019-01-16T06:06:07.725Z,67.60
2019-01-16T06:12:02.964Z,67.00
2019-01-16T06:14:46.361Z,68.10
2019-01-16T06:17:36.670Z,66.90
2019-01-16T06:20:15.023Z,67.40
2019-01-16T06:26:01.584Z,67.60
2019-01-16T06:28:37.317Z,65.70
2019-01-16T06:31:26.939Z,67.80
2019-01-16T06:34:01.929Z,67.70
2019-01-16T06:36:38.389Z,67.10
2019-01-16T06:39:14.074Z,67.50
2019-01-16T06:42:02.621Z,67.60
2019-01-16T06:44:43.587Z,66.80
2019-01-16T06:47:16.988Z,66.10
2019-01-16T06:49:53.513Z,65.70
2019-01-16T06:52:25.511Z,66.90
2019-01-16T06:55:12.836Z,66.50
2019-01-16T06:57:46.606Z,66.60
2019-01-16T07:00:31.647Z,66.00
2019-01-16T07:03:21.346Z,65.70
2019-01-16T07:06:10.248Z,66.50
2019-01-16T07:08:57.474Z,66.40
2019-01-16T07:11:31.191Z,65.30
2019-01-16T07:14:13.647Z,66.20
2019-01-16T07:17:01.154Z,66.60
2019-01-16T07:19:36.049Z,66.70
2019-01-16T07:22:11.018Z,66.00
2019-01-16T07:24:58.736Z,65.80
2019-01-16T07:27:38.159Z,66.50
2019-01-16T07:30:22.959Z,66.00
2019-01-16T07:33:02.131Z,65.50
2019-01-16T07:35:47.125Z,65.30
2019-01-16T07:38:31.560Z,65.00
2019-01-16T07:41:04.445Z,64.70
2019-01-16T07:43:42.016Z,65.00
2019-01-16T07:46:26.551Z,65.40
2019-01-16T07:49:08.558Z,65.30
2019-01-16T07:54:57.541Z,64.70
2019-01-16T08:00:29.411Z,67.60
2019-01-16T08:06:08.068Z,66.10
2019-01-16T08:08:58.187Z,65.50
2019-01-16T08:11:42.905Z,65.00
2019-01-16T08:14:19.406Z,64.80
2019-01-16T08:17:04.163Z,63.40
2019-01-16T08:19:40.295Z,64.40
2019-01-16T08:22:15.998Z,64.60
2019-01-16T08:24:48.948Z,65.00
2019-01-16T08:27:35.914Z,65.40
2019-01-16T08:30:18.726Z,64.80
2019-01-16T08:32:53.919Z,64.70
2019-01-16T08:35:27.234Z,64.50
2019-01-16T08:38:00.582Z,64.00
2019-01-16T08:40:41.218Z,65.10
2019-01-16T08:43:16.456Z,64.60
2019-01-16T08:46:05.892Z,63.30
2019-01-16T08:48:39.879Z,63.30
2019-01-16T08:51:31.542Z,63.90
2019-01-16T08:54:36.183Z,65.50
2019-01-16T08:57:19.220Z,66.00
2019-01-16T08:59:57.068Z,65.90
2019-01-16T09:02:34.851Z,66.60
2019-01-16T09:05:30.599Z,67.60
2019-01-16T09:08:15.308Z,66.90
2019-01-16T09:10:50.871Z,66.60
2019-01-16T09:13:33.891Z,65.30
2019-01-16T09:19:14.663Z,65.10
2019-01-16T09:22:01.296Z,65.10
2019-01-16T09:24:52.457Z,64.80
2019-01-16T09:27:27.190Z,64.20
2019-01-16T09:30:22.518Z,64.20
2019-01-16T09:36:06.786Z,63.50
2019-01-16T09:38:37.772Z,63.40
2019-01-16T09:41:24.629Z,63.70
2019-01-16T09:43:58.123Z,64.10
2019-01-16T09:46:30.055Z,64.70
2019-01-16T09:49:10.421Z,64.60
2019-01-16T09:51:51.946Z,64.30
2019-01-16T09:54:39.261Z,65.50
2019-01-16T09:57:27.594Z,65.20
2019-01-16T10:00:16.702Z,64.20
2019-01-16T10:03:03.904Z,64.30
2019-01-16T10:05:50.642Z,63.80
2019-01-16T10:08:39.617Z,63.70
2019-01-16T10:11:28.699Z,63.10
2019-01-16T10:14:01.065Z,63.30
2019-01-16T10:16:46.482Z,63.30
2019-01-16T10:19:27.642Z,63.40
2019-01-16T10:22:17.311Z,63.60
2019-01-16T10:25:05.431Z,62.90
2019-01-16T10:27:39.730Z,62.80
2019-01-16T10:30:29.900Z,61.70
2019-01-16T10:33:19.051Z,61.70
2019-01-16T10:35:56.074Z,61.60
2019-01-16T10:38:32.200Z,66.50
2019-01-16T10:41:23.611Z,67.10
2019-01-16T10:43:57.866Z,65.80
2019-01-16T10:46:39.105Z,67.20
2019-01-16T10:49:29.853Z,65.10
2019-01-16T10:52:19.291Z,64.50
2019-01-16T10:55:00.390Z,63.70
2019-01-16T10:57:39.768Z,63.50
2019-01-16T11:00:28.409Z,64.30
2019-01-16T11:03:29.621Z,64.30
2019-01-16T11:06:03.069Z,63.30
2019-01-16T11:08:43.836Z,64.80
2019-01-16T11:11:29.382Z,65.80
2019-01-16T11:14:10.318Z,63.60
2019-01-16T11:16:42.439Z,63.90
2019-01-16T11:19:14.286Z,64.00
2019-01-16T11:22:04.286Z,63.40
2019-01-16T11:24:48.198Z,62.50
2019-01-16T11:27:26.055Z,62.80
2019-01-16T11:30:10.864Z,63.80
2019-01-16T11:32:52.723Z,63.80
2019-01-16T11:35:36.861Z,62.80
2019-01-16T11:38:10.611Z,63.50
2019-01-16T11:41:06.276Z,62.60
2019-01-16T11:43:50.788Z,62.30
2019-01-16T11:46:29.172Z,62.60
2019-01-16T11:49:05.937Z,65.10
2019-01-16T11:51:55.793Z,65.50
2019-01-16T11:54:43.412Z,66.00
2019-01-16T11:57:33.089Z,65.80
2019-01-16T12:03:03.151Z,64.30
2019-01-16T12:05:50.187Z,66.90
2019-01-16T12:12:06.275Z,68.70
2019-01-16T12:14:40.182Z,68.60
2019-01-16T12:17:17.636Z,67.00
2019-01-16T12:20:05.759Z,65.10
2019-01-16T12:22:38.230Z,65.30
2019-01-16T12:25:12.652Z,66.80
2019-01-16T12:28:04.754Z,68.00
2019-01-16T12:30:49.363Z,68.20
2019-01-16T12:33:32.482Z,66.70
2019-01-16T12:36:08.318Z,64.40
2019-01-16T12:38:58.364Z,66.30
2019-01-16T12:41:38.920Z,67.20
2019-01-16T12:44:32.711Z,67.10
2019-01-16T12:47:08.318Z,65.60
2019-01-16T12:49:56.417Z,64.10
2019-01-16T12:52:27.793Z,66.90
2019-01-16T12:55:21.769Z,66.20
2019-01-16T12:58:13.499Z,66.20
2019-01-16T13:00:51.803Z,64.60
2019-01-16T13:03:42.002Z,65.70
2019-01-16T13:06:17.707Z,64.10
2019-01-16T13:08:58.129Z,69.50
2019-01-16T13:11:47.883Z,69.60
2019-01-16T13:14:21.147Z,61.90
2019-01-16T13:16:59.060Z,58.80
2019-01-16T13:19:35.957Z,63.20
2019-01-16T13:22:13.561Z,64.90
2019-01-16T13:24:48.561Z,66.40
2019-01-16T13:27:28.986Z,68.20
2019-01-16T13:30:04.102Z,67.80
2019-01-16T13:32:38.249Z,66.80
2019-01-16T13:35:28.154Z,67.50
2019-01-16T13:38:01.238Z,69.60
2019-01-16T13:40:36.307Z,67.60
2019-01-16T13:43:30.113Z,67.80
2019-01-16T13:46:19.589Z,68.30
2019-01-16T13:48:55.718Z,67.10
2019-01-16T13:51:32.859Z,67.10
2019-01-16T13:54:04.032Z,67.90
2019-01-16T13:56:40.968Z,66.40
2019-01-16T13:59:21.363Z,64.50
2019-01-16T14:02:04.080Z,65.80
2019-01-16T14:04:43.506Z,65.30
2019-01-16T14:07:17.482Z,64.60
2019-01-16T14:10:02.224Z,65.50
2019-01-16T14:12:37.821Z,66.80
2019-01-16T14:15:29.888Z,66.80
2019-01-16T14:18:01.839Z,65.30
2019-01-16T14:20:59.276Z,64.40
2019-01-16T14:23:48.682Z,65.40
2019-01-16T14:26:27.515Z,65.50
2019-01-16T14:29:11.516Z,64.70
2019-01-16T14:32:00.461Z,67.10
2019-01-16T14:34:58.606Z,67.50
2019-01-16T14:37:38.923Z,68.40
2019-01-16T14:40:29.902Z,66.70
2019-01-16T14:43:16.028Z,66.40
2019-01-16T14:45:47.656Z,65.80
2019-01-16T14:48:35.256Z,66.60
2019-01-16T14:51:22.672Z,67.10
2019-01-16T14:54:11.404Z,65.10
2019-01-16T14:56:52.702Z,66.70
2019-01-16T14:59:44.496Z,67.80
2019-01-16T15:02:31.325Z,69.00
2019-01-16T15:05:05.273Z,66.00
2019-01-16T15:07:37.475Z,66.70
2019-01-16T15:10:11.769Z,66.70
2019-01-16T15:12:59.627Z,66.90
2019-01-16T15:15:35.514Z,65.30
2019-01-16T15:18:08.644Z,65.10
2019-01-16T15:20:43.258Z,64.00
2019-01-16T15:23:22.945Z,65.10
2019-01-16T15:26:00.417Z,64.40
2019-01-16T15:28:51.814Z,64.90
2019-01-16T15:31:30.926Z,65.10
2019-01-16T15:34:21.168Z,65.00
2019-01-16T15:36:56.077Z,64.80
2019-01-16T15:39:45.864Z,65.50
2019-01-16T15:42:33.151Z,66.30
2019-01-16T15:45:18.949Z,66.40
2019-01-16T15:47:54.931Z,66.60
2019-01-16T15:50:46.866Z,66.70
2019-01-16T15:53:26.522Z,66.60
2019-01-16T15:55:57.635Z,66.80
2019-01-16T15:59:00.630Z,67.40
2019-01-16T16:01:53.976Z,67.80
2019-01-16T16:04:13.780Z,68.50
2019-01-16T16:07:09.465Z,68.20
2019-01-16T16:09:46.378Z,67.10
2019-01-16T16:12:39.649Z,68.30
2019-01-16T16:15:12.839Z,68.00
2019-01-16T16:18:02.591Z,69.40
2019-01-16T16:20:37.989Z,68.80
2019-01-16T16:23:10.460Z,68.40
2019-01-16T16:25:45.513Z,69.20
2019-01-16T16:28:17.892Z,69.40
2019-01-16T16:31:11.195Z,70.00
2019-01-16T16:33:43.599Z,70.30
2019-01-16T16:36:33.755Z,70.00
2019-01-16T16:39:23.223Z,70.10
2019-01-16T16:42:12.381Z,69.80
2019-01-16T16:45:02.892Z,71.30
2019-01-16T16:47:42.849Z,72.30
2019-01-16T16:50:22.327Z,71.20
2019-01-16T16:53:06.942Z,71.50
2019-01-16T16:55:51.840Z,72.20
2019-01-16T16:58:36.042Z,72.90
2019-01-16T17:01:14.006Z,73.10
2019-01-16T17:03:49.664Z,73.30
2019-01-16T17:06:37.499Z,73.80
2019-01-16T17:09:17.695Z,72.00
2019-01-16T17:12:08.219Z,75.30
2019-01-16T17:14:49.805Z,75.20
2019-01-16T17:17:26.532Z,75.60
2019-01-16T17:20:06.028Z,74.70
2019-01-16T17:22:46.450Z,74.60
2019-01-16T17:25:24.348Z,76.00
2019-01-16T17:28:17.955Z,76.00
2019-01-16T17:31:02.254Z,76.00
2019-01-16T17:33:39.628Z,76.50
2019-01-16T17:36:22.975Z,75.70
2019-01-16T17:39:01.501Z,75.70
2019-01-16T17:41:52.882Z,73.90
2019-01-16T17:44:29.244Z,74.60
2019-01-16T17:47:19.530Z,74.60
2019-01-16T17:50:21.906Z,73.70
2019-01-16T17:53:05.920Z,75.20
2019-01-16T17:56:08.241Z,75.30
2019-01-16T17:58:48.606Z,74.30
2019-01-16T18:01:29.299Z,74.90
2019-01-16T18:04:22.713Z,74.20
2019-01-16T18:06:55.791Z,72.80
2019-01-16T18:09:51.530Z,72.80
2019-01-16T18:12:32.992Z,73.50
2019-01-16T18:15:16.719Z,75.00
2019-01-16T18:17:54.662Z,73.80
2019-01-16T18:20:27.866Z,74.70
2019-01-16T18:23:20.236Z,75.30
2019-01-16T18:26:06.802Z,74.50
2019-01-16T18:28:50.576Z,72.90
2019-01-16T18:31:28.487Z,73.60
2019-01-16T18:34:25.056Z,73.30
2019-01-16T18:36:57.188Z,74.10
2019-01-16T18:39:46.301Z,74.60
2019-01-16T18:42:19.779Z,75.20
2019-01-16T18:45:10.652Z,77.10
2019-01-16T18:48:01.428Z,76.60
2019-01-16T18:50:44.340Z,75.90
2019-01-16T18:53:43.413Z,75.90
2019-01-16T18:56:34.223Z,75.90
2019-01-16T18:59:24.058Z,74.90
2019-01-16T19:01:59.338Z,75.40
2019-01-16T19:04:39.269Z,74.10
2019-01-16T19:07:23.898Z,74.40
2019-01-16T19:10:15.769Z,75.90
2019-01-16T19:12:53.668Z,76.00
2019-01-16T19:15:29.890Z,74.70
2019-01-16T19:18:23.112Z,73.70
2019-01-16T19:21:11.829Z,72.10
2019-01-16T19:24:02.666Z,70.60
2019-01-16T19:26:45.104Z,69.60
2019-01-16T19:29:54.981Z,70.00
2019-01-16T19:32:41.029Z,69.10
2019-01-16T19:38:24.672Z,67.90
2019-01-16T19:44:06.522Z,69.80
2019-01-16T19:49:57.016Z,69.60
2019-01-16T19:55:42.062Z,68.90
2019-01-16T19:58:14.320Z,68.50
2019-01-16T20:00:54.162Z,68.10
2019-01-16T20:03:31.666Z,67.90
2019-01-16T20:06:42.458Z,67.40
2019-01-16T20:09:37.079Z,66.20
2019-01-16T20:12:59.823Z,66.50
2019-01-16T20:15:45.370Z,65.70
2019-01-16T20:19:12.540Z,66.80
2019-01-16T20:22:05.052Z,68.50
2019-01-16T20:27:52.921Z,66.20
2019-01-16T20:30:57.376Z,65.50
2019-01-16T20:33:28.757Z,65.10
2019-01-16T20:36:51.318Z,67.00
2019-01-16T20:39:39.433Z,66.80
2019-01-16T20:42:12.901Z,67.80
2019-01-16T20:44:52.136Z,66.80
2019-01-16T20:47:44.605Z,66.20
2019-01-16T20:50:33.134Z,66.20
2019-01-16T20:56:18.220Z,65.00
2019-01-16T20:59:55.252Z,69.50
2019-01-16T21:02:36.856Z,73.50
2019-01-16T21:06:13.585Z,74.80
2019-01-16T21:08:58.999Z,73.80
2019-01-16T21:14:50.266Z,73.10
2019-01-16T21:20:46.672Z,69.90
2019-01-16T21:24:02.614Z,70.60
2019-01-16T21:26:51.864Z,72.50
2019-01-16T21:32:33.129Z,73.50
2019-01-16T21:38:12.736Z,73.80
2019-01-16T21:43:48.350Z,72.10
2019-01-16T21:46:57.766Z,70.00
2019-01-16T21:49:31.604Z,70.50
2019-01-16T21:52:02.159Z,72.90
2019-01-16T21:58:21.766Z,75.80
2019-01-16T22:01:07.924Z,76.20
2019-01-16T22:04:20.395Z,77.60
2019-01-16T22:06:59.175Z,76.90
2019-01-16T22:12:39.244Z,78.00
2019-01-16T22:18:00.559Z,73.90
2019-01-16T22:23:43.822Z,71.20
2019-01-16T22:27:54.122Z,70.90
2019-01-16T22:28:59.731Z,71.10
2019-01-16T22:32:11.740Z,71.40
2019-01-16T22:34:16.999Z,71.10
2019-01-16T22:37:23.850Z,71.00
2019-01-16T22:40:01.133Z,70.10
2019-01-16T22:45:44.199Z,69.30
2019-01-16T22:51:44.639Z,69.90
2019-01-16T22:57:34.304Z,69.30
2019-01-16T23:02:59.946Z,69.00
2019-01-16T23:05:33.515Z,69.00
2019-01-16T23:08:16.837Z,70.20
2019-01-16T23:10:59.486Z,68.90
2019-01-16T23:14:04.376Z,68.50
2019-01-16T23:16:51.195Z,69.00
2019-01-16T23:22:22.212Z,68.50
2019-01-16T23:28:08.470Z,72.80
2019-01-16T23:34:00.999Z,73.40
2019-01-16T23:39:49.144Z,73.40
2019-01-16T23:45:35.273Z,73.20
2019-01-16T23:48:07.487Z,71.30
2019-01-16T23:57:12.534Z,74.30
